CZUM/ZUM METAR and TAF weather

Enter ICAO airport designator
Station Type Date Time Source
CZUM METAR 2020/07/10 18:36 UTC NOAA

CZUM 101836Z AUTO 21003KT 150V280 9SM SCT085 BKN130 25/13 A2996 RMK SLP151 DENSITY ALT 2800FT


Station Type Date Time Source
CZUM Decoded METAR 2020/07/10 18:36 UTC NOAA

Churchill Falls, Nfld., Canada (CZUM) 53-33N 064-06W 440M
Jul 10, 2020 - 02:36 PM EDT / 2020.07.10 1836 UTC
Wind: from the SSW (210 degrees) at 3 MPH (3 KT) (direction variable):0
Visibility: 9 mile(s):0
Sky conditions: mostly cloudy
Temperature: 77 F (25 C)
Dew Point: 55 F (13 C)
Relative Humidity: 47%
Pressure (altimeter): 29.96 in. Hg (1014 hPa)
ob: CZUM 101836Z AUTO 21003KT 150V280 9SM SCT085 BKN130 25/13 A2996 RMK SLP151 DENSITY ALT 2800FT
cycle: 18

Station Type Date Time Source
CZUM TAF 2020/07/10 14:42 UTC NOAA

TAF CZUM 101338Z 1014/1102 21005KT P6SM FEW100 BKN200
BECMG 1016/1018 22010KT SCT060
FM102200 24010KT P6SM BKN060
TEMPO 1022/1102 5SM -SHRA BR PROB30 1022/1102 VRB15G25KT 11/2SM TSRA BR BKN008 OVC020CB
RMK FCST BASED ON AUTO OBS. NXT FCST BY 102000Z

Example: see airport list